sensor_id;sensor_type;location;lat;lon;timestamp;temperature;humidity
30288;DHT22;17103;48.316;11.558;2023-04-07T00:02:16;15.90;24.50
30288;DHT22;17103;48.316;11.558;2023-04-07T00:04:42;15.90;24.50
30288;DHT22;17103;48.316;11.558;2023-04-07T00:07:08;15.90;24.50
30288;DHT22;17103;48.316;11.558;2023-04-07T00:09:34;15.90;24.60
30288;DHT22;17103;48.316;11.558;2023-04-07T00:11:59;15.80;24.50
30288;DHT22;17103;48.316;11.558;2023-04-07T00:14:29;15.80;24.60
30288;DHT22;17103;48.316;11.558;2023-04-07T00:16:54;15.70;24.60
30288;DHT22;17103;48.316;11.558;2023-04-07T00:19:20;15.70;24.60
30288;DHT22;17103;48.316;11.558;2023-04-07T00:21:46;15.80;24.70
30288;DHT22;17103;48.316;11.558;2023-04-07T00:24:11;15.70;24.60
30288;DHT22;17103;48.316;11.558;2023-04-07T00:26:37;15.70;24.70
30288;DHT22;17103;48.316;11.558;2023-04-07T00:29:03;15.70;24.70
30288;DHT22;17103;48.316;11.558;2023-04-07T00:31:28;15.70;24.70
30288;DHT22;17103;48.316;11.558;2023-04-07T00:33:54;15.60;24.70
30288;DHT22;17103;48.316;11.558;2023-04-07T00:36:22;15.60;24.70
30288;DHT22;17103;48.316;11.558;2023-04-07T00:38:47;15.60;24.80
30288;DHT22;17103;48.316;11.558;2023-04-07T00:41:13;15.70;24.90
30288;DHT22;17103;48.316;11.558;2023-04-07T00:43:39;15.60;24.80
30288;DHT22;17103;48.316;11.558;2023-04-07T00:46:05;15.60;24.80
30288;DHT22;17103;48.316;11.558;2023-04-07T00:48:30;15.60;24.80
30288;DHT22;17103;48.316;11.558;2023-04-07T00:50:56;15.50;24.70
30288;DHT22;17103;48.316;11.558;2023-04-07T00:53:22;15.50;24.60
30288;DHT22;17103;48.316;11.558;2023-04-07T00:55:47;15.50;24.60
30288;DHT22;17103;48.316;11.558;2023-04-07T00:58:13;15.50;24.60
30288;DHT22;17103;48.316;11.558;2023-04-07T01:00:54;15.40;24.70
30288;DHT22;17103;48.316;11.558;2023-04-07T01:03:29;15.40;24.60
30288;DHT22;17103;48.316;11.558;2023-04-07T01:06:01;15.40;24.60
30288;DHT22;17103;48.316;11.558;2023-04-07T01:11:27;15.30;24.50
30288;DHT22;17103;48.316;11.558;2023-04-07T01:13:56;15.10;24.50
30288;DHT22;17103;48.316;11.558;2023-04-07T01:16:35;15.00;24.40
30288;DHT22;17103;48.316;11.558;2023-04-07T01:21:44;14.80;24.70
30288;DHT22;17103;48.316;11.558;2023-04-07T01:27:24;14.50;25.10
30288;DHT22;17103;48.316;11.558;2023-04-07T01:29:55;14.40;25.30
30288;DHT22;17103;48.316;11.558;2023-04-07T01:32:22;14.20;25.10
30288;DHT22;17103;48.316;11.558;2023-04-07T01:34:51;14.10;25.10
30288;DHT22;17103;48.316;11.558;2023-04-07T01:37:18;14.00;25.60
30288;DHT22;17103;48.316;11.558;2023-04-07T01:39:44;13.80;25.60
30288;DHT22;17103;48.316;11.558;2023-04-07T01:42:11;13.80;25.80
30288;DHT22;17103;48.316;11.558;2023-04-07T01:44:39;13.70;25.70
30288;DHT22;17103;48.316;11.558;2023-04-07T01:47:05;13.60;26.00
30288;DHT22;17103;48.316;11.558;2023-04-07T01:49:32;13.50;26.30
30288;DHT22;17103;48.316;11.558;2023-04-07T01:51:58;13.30;26.20
30288;DHT22;17103;48.316;11.558;2023-04-07T01:54:25;13.10;26.20
30288;DHT22;17103;48.316;11.558;2023-04-07T01:56:51;13.00;26.20
30288;DHT22;17103;48.316;11.558;2023-04-07T01:59:17;12.90;26.90
30288;DHT22;17103;48.316;11.558;2023-04-07T02:01:42;12.80;26.50
30288;DHT22;17103;48.316;11.558;2023-04-07T02:06:41;12.60;27.40
30288;DHT22;17103;48.316;11.558;2023-04-07T02:09:10;12.60;27.50
30288;DHT22;17103;48.316;11.558;2023-04-07T02:11:39;12.50;27.60
30288;DHT22;17103;48.316;11.558;2023-04-07T02:14:07;12.50;27.70
30288;DHT22;17103;48.316;11.558;2023-04-07T02:16:34;12.50;28.10
30288;DHT22;17103;48.316;11.558;2023-04-07T02:19:00;12.50;28.10
30288;DHT22;17103;48.316;11.558;2023-04-07T02:21:28;12.40;28.00
30288;DHT22;17103;48.316;11.558;2023-04-07T02:23:55;12.40;28.20
30288;DHT22;17103;48.316;11.558;2023-04-07T02:26:21;12.30;28.20
30288;DHT22;17103;48.316;11.558;2023-04-07T02:28:46;12.30;28.30
30288;DHT22;17103;48.316;11.558;2023-04-07T02:31:12;12.30;28.30
30288;DHT22;17103;48.316;11.558;2023-04-07T02:33:38;12.40;28.20
30288;DHT22;17103;48.316;11.558;2023-04-07T02:36:04;12.40;28.80
30288;DHT22;17103;48.316;11.558;2023-04-07T02:38:31;12.40;28.60
30288;DHT22;17103;48.316;11.558;2023-04-07T02:40:56;12.40;28.50
30288;DHT22;17103;48.316;11.558;2023-04-07T02:43:23;12.50;28.80
30288;DHT22;17103;48.316;11.558;2023-04-07T02:45:49;12.50;29.20
30288;DHT22;17103;48.316;11.558;2023-04-07T02:48:15;12.60;29.00
30288;DHT22;17103;48.316;11.558;2023-04-07T02:50:41;12.60;29.10
30288;DHT22;17103;48.316;11.558;2023-04-07T02:53:08;12.60;29.10
30288;DHT22;17103;48.316;11.558;2023-04-07T02:55:33;12.60;29.20
30288;DHT22;17103;48.316;11.558;2023-04-07T02:57:59;12.60;29.30
30288;DHT22;17103;48.316;11.558;2023-04-07T03:00:25;12.70;29.50
30288;DHT22;17103;48.316;11.558;2023-04-07T03:02:50;12.70;29.00
30288;DHT22;17103;48.316;11.558;2023-04-07T03:05:16;12.70;29.70
30288;DHT22;17103;48.316;11.558;2023-04-07T03:07:42;12.70;29.60
30288;DHT22;17103;48.316;11.558;2023-04-07T03:10:08;12.70;29.70
30288;DHT22;17103;48.316;11.558;2023-04-07T03:12:34;12.60;30.00
30288;DHT22;17103;48.316;11.558;2023-04-07T03:14:59;12.60;29.50
30288;DHT22;17103;48.316;11.558;2023-04-07T03:17:25;12.60;29.70
30288;DHT22;17103;48.316;11.558;2023-04-07T03:19:51;12.60;29.90
30288;DHT22;17103;48.316;11.558;2023-04-07T03:22:16;12.60;30.80
30288;DHT22;17103;48.316;11.558;2023-04-07T03:24:42;12.60;30.80
30288;DHT22;17103;48.316;11.558;2023-04-07T03:27:08;12.60;30.30
30288;DHT22;17103;48.316;11.558;2023-04-07T03:29:33;12.50;31.00
30288;DHT22;17103;48.316;11.558;2023-04-07T03:31:59;12.50;30.90
30288;DHT22;17103;48.316;11.558;2023-04-07T03:34:25;12.40;31.40
30288;DHT22;17103;48.316;11.558;2023-04-07T03:36:51;12.40;30.90
30288;DHT22;17103;48.316;11.558;2023-04-07T03:39:16;12.30;31.20
30288;DHT22;17103;48.316;11.558;2023-04-07T03:41:42;12.30;31.30
30288;DHT22;17103;48.316;11.558;2023-04-07T03:44:08;12.30;32.40
30288;DHT22;17103;48.316;11.558;2023-04-07T03:46:34;12.10;32.70
30288;DHT22;17103;48.316;11.558;2023-04-07T03:49:00;12.20;32.00
30288;DHT22;17103;48.316;11.558;2023-04-07T03:51:25;12.10;32.30
30288;DHT22;17103;48.316;11.558;2023-04-07T03:53:52;12.00;32.80
30288;DHT22;17103;48.316;11.558;2023-04-07T03:56:18;12.00;32.90
30288;DHT22;17103;48.316;11.558;2023-04-07T03:58:44;11.90;32.70
30288;DHT22;17103;48.316;11.558;2023-04-07T04:01:11;12.00;33.80
30288;DHT22;17103;48.316;11.558;2023-04-07T04:03:36;11.90;33.20
30288;DHT22;17103;48.316;11.558;2023-04-07T04:06:02;11.80;33.70
30288;DHT22;17103;48.316;11.558;2023-04-07T04:08:28;11.80;34.20
30288;DHT22;17103;48.316;11.558;2023-04-07T04:10:53;11.80;33.90
30288;DHT22;17103;48.316;11.558;2023-04-07T04:13:19;11.70;34.10
30288;DHT22;17103;48.316;11.558;2023-04-07T04:15:45;11.70;35.00
30288;DHT22;17103;48.316;11.558;2023-04-07T04:18:11;11.70;34.30
30288;DHT22;17103;48.316;11.558;2023-04-07T04:20:36;11.60;33.90
30288;DHT22;17103;48.316;11.558;2023-04-07T04:23:02;11.60;33.80
30288;DHT22;17103;48.316;11.558;2023-04-07T04:25:28;11.70;33.90
30288;DHT22;17103;48.316;11.558;2023-04-07T04:27:53;11.70;34.50
30288;DHT22;17103;48.316;11.558;2023-04-07T04:30:19;11.80;33.60
30288;DHT22;17103;48.316;11.558;2023-04-07T04:32:45;11.90;34.10
30288;DHT22;17103;48.316;11.558;2023-04-07T04:35:10;12.00;34.30
30288;DHT22;17103;48.316;11.558;2023-04-07T04:37:36;12.00;34.40
30288;DHT22;17103;48.316;11.558;2023-04-07T04:40:01;12.10;34.20
30288;DHT22;17103;48.316;11.558;2023-04-07T04:42:28;12.20;34.50
30288;DHT22;17103;48.316;11.558;2023-04-07T04:44:55;12.20;34.20
30288;DHT22;17103;48.316;11.558;2023-04-07T04:47:21;12.30;34.20
30288;DHT22;17103;48.316;11.558;2023-04-07T04:49:47;12.30;34.10
30288;DHT22;17103;48.316;11.558;2023-04-07T04:52:12;12.50;34.20
30288;DHT22;17103;48.316;11.558;2023-04-07T04:54:38;12.50;34.10
30288;DHT22;17103;48.316;11.558;2023-04-07T04:57:04;12.60;34.30
30288;DHT22;17103;48.316;11.558;2023-04-07T04:59:29;12.70;33.60
30288;DHT22;17103;48.316;11.558;2023-04-07T05:01:55;12.80;33.50
30288;DHT22;17103;48.316;11.558;2023-04-07T05:04:21;12.80;33.50
30288;DHT22;17103;48.316;11.558;2023-04-07T05:06:46;13.00;33.50
30288;DHT22;17103;48.316;11.558;2023-04-07T05:09:12;13.00;34.00
30288;DHT22;17103;48.316;11.558;2023-04-07T05:11:39;13.10;34.20
30288;DHT22;17103;48.316;11.558;2023-04-07T05:14:05;13.00;34.00
30288;DHT22;17103;48.316;11.558;2023-04-07T05:16:31;13.10;34.40
30288;DHT22;17103;48.316;11.558;2023-04-07T05:18:56;13.10;34.20
30288;DHT22;17103;48.316;11.558;2023-04-07T05:21:22;13.10;34.20
30288;DHT22;17103;48.316;11.558;2023-04-07T05:23:48;13.10;34.20
30288;DHT22;17103;48.316;11.558;2023-04-07T05:26:14;13.20;34.10
30288;DHT22;17103;48.316;11.558;2023-04-07T05:28:40;13.20;34.20
30288;DHT22;17103;48.316;11.558;2023-04-07T05:31:05;13.20;34.50
30288;DHT22;17103;48.316;11.558;2023-04-07T05:33:31;13.20;34.40
30288;DHT22;17103;48.316;11.558;2023-04-07T05:35:56;13.20;35.00
30288;DHT22;17103;48.316;11.558;2023-04-07T05:38:22;13.30;34.40
30288;DHT22;17103;48.316;11.558;2023-04-07T05:40:48;13.30;34.80
30288;DHT22;17103;48.316;11.558;2023-04-07T05:43:14;13.30;34.40
30288;DHT22;17103;48.316;11.558;2023-04-07T05:45:39;13.30;34.30
30288;DHT22;17103;48.316;11.558;2023-04-07T05:48:05;13.30;33.90
30288;DHT22;17103;48.316;11.558;2023-04-07T05:50:31;13.20;33.50
30288;DHT22;17103;48.316;11.558;2023-04-07T05:52:56;13.10;33.60
30288;DHT22;17103;48.316;11.558;2023-04-07T05:55:22;13.00;34.10
30288;DHT22;17103;48.316;11.558;2023-04-07T05:57:48;12.80;34.10
30288;DHT22;17103;48.316;11.558;2023-04-07T06:00:14;12.60;34.00
30288;DHT22;17103;48.316;11.558;2023-04-07T06:02:40;12.40;34.10
30288;DHT22;17103;48.316;11.558;2023-04-07T06:05:06;12.20;34.10
30288;DHT22;17103;48.316;11.558;2023-04-07T06:07:32;12.10;35.40
30288;DHT22;17103;48.316;11.558;2023-04-07T06:09:57;11.90;34.70
30288;DHT22;17103;48.316;11.558;2023-04-07T06:12:23;11.70;34.90
30288;DHT22;17103;48.316;11.558;2023-04-07T06:14:53;11.60;35.70
30288;DHT22;17103;48.316;11.558;2023-04-07T06:17:19;11.50;36.00
30288;DHT22;17103;48.316;11.558;2023-04-07T06:19:45;11.30;35.20
30288;DHT22;17103;48.316;11.558;2023-04-07T06:22:11;11.20;36.80
30288;DHT22;17103;48.316;11.558;2023-04-07T06:24:37;11.10;36.90
30288;DHT22;17103;48.316;11.558;2023-04-07T06:27:02;11.00;36.30
30288;DHT22;17103;48.316;11.558;2023-04-07T06:29:37;10.90;36.50
30288;DHT22;17103;48.316;11.558;2023-04-07T06:32:03;10.80;37.10
30288;DHT22;17103;48.316;11.558;2023-04-07T06:34:28;10.80;36.60
30288;DHT22;17103;48.316;11.558;2023-04-07T06:36:54;10.70;37.70
30288;DHT22;17103;48.316;11.558;2023-04-07T06:39:20;10.60;36.40
30288;DHT22;17103;48.316;11.558;2023-04-07T06:41:45;10.60;36.60
30288;DHT22;17103;48.316;11.558;2023-04-07T06:44:11;10.60;37.10
30288;DHT22;17103;48.316;11.558;2023-04-07T06:46:38;10.60;37.00
30288;DHT22;17103;48.316;11.558;2023-04-07T06:49:03;10.60;37.30
30288;DHT22;17103;48.316;11.558;2023-04-07T06:51:30;10.60;37.40
30288;DHT22;17103;48.316;11.558;2023-04-07T06:53:57;10.60;37.80
30288;DHT22;17103;48.316;11.558;2023-04-07T06:56:22;10.60;37.90
30288;DHT22;17103;48.316;11.558;2023-04-07T06:58:48;10.60;37.60
30288;DHT22;17103;48.316;11.558;2023-04-07T07:01:15;10.60;37.60
30288;DHT22;17103;48.316;11.558;2023-04-07T07:03:42;10.70;37.60
30288;DHT22;17103;48.316;11.558;2023-04-07T07:06:08;10.70;37.00
30288;DHT22;17103;48.316;11.558;2023-04-07T07:08:34;10.70;37.00
30288;DHT22;17103;48.316;11.558;2023-04-07T07:10:59;10.80;37.60
30288;DHT22;17103;48.316;11.558;2023-04-07T07:13:26;10.80;37.30
30288;DHT22;17103;48.316;11.558;2023-04-07T07:15:52;10.90;37.50
30288;DHT22;17103;48.316;11.558;2023-04-07T07:18:18;10.90;37.50
30288;DHT22;17103;48.316;11.558;2023-04-07T07:20:44;11.00;37.40
30288;DHT22;17103;48.316;11.558;2023-04-07T07:23:11;11.00;37.30
30288;DHT22;17103;48.316;11.558;2023-04-07T07:25:36;11.10;37.40
30288;DHT22;17103;48.316;11.558;2023-04-07T07:28:02;11.20;37.80
30288;DHT22;17103;48.316;11.558;2023-04-07T07:30:27;11.20;37.60
30288;DHT22;17103;48.316;11.558;2023-04-07T07:32:54;11.20;37.70
30288;DHT22;17103;48.316;11.558;2023-04-07T07:35:20;11.30;37.90
30288;DHT22;17103;48.316;11.558;2023-04-07T07:37:46;11.30;37.60
30288;DHT22;17103;48.316;11.558;2023-04-07T07:40:12;11.30;37.80
30288;DHT22;17103;48.316;11.558;2023-04-07T07:42:37;11.40;37.50
30288;DHT22;17103;48.316;11.558;2023-04-07T07:45:04;11.40;37.20
30288;DHT22;17103;48.316;11.558;2023-04-07T07:47:30;11.30;37.40
30288;DHT22;17103;48.316;11.558;2023-04-07T07:49:56;11.50;37.40
30288;DHT22;17103;48.316;11.558;2023-04-07T07:52:22;11.60;37.30
30288;DHT22;17103;48.316;11.558;2023-04-07T07:54:48;11.60;37.20
30288;DHT22;17103;48.316;11.558;2023-04-07T07:57:14;11.70;37.10
30288;DHT22;17103;48.316;11.558;2023-04-07T07:59:40;11.70;37.00
30288;DHT22;17103;48.316;11.558;2023-04-07T08:02:07;11.70;36.80
30288;DHT22;17103;48.316;11.558;2023-04-07T08:04:34;11.80;36.90
30288;DHT22;17103;48.316;11.558;2023-04-07T08:07:00;11.90;36.80
30288;DHT22;17103;48.316;11.558;2023-04-07T08:09:26;11.90;36.90
30288;DHT22;17103;48.316;11.558;2023-04-07T08:11:52;11.90;36.80
30288;DHT22;17103;48.316;11.558;2023-04-07T08:14:18;11.90;37.00
30288;DHT22;17103;48.316;11.558;2023-04-07T08:16:44;11.90;36.90
30288;DHT22;17103;48.316;11.558;2023-04-07T08:19:10;12.00;36.50
30288;DHT22;17103;48.316;11.558;2023-04-07T08:21:36;12.10;37.00
30288;DHT22;17103;48.316;11.558;2023-04-07T08:24:02;12.10;36.80
30288;DHT22;17103;48.316;11.558;2023-04-07T08:26:28;12.10;36.60
30288;DHT22;17103;48.316;11.558;2023-04-07T08:28:53;12.10;36.50
30288;DHT22;17103;48.316;11.558;2023-04-07T08:31:20;12.00;36.80
30288;DHT22;17103;48.316;11.558;2023-04-07T08:33:46;12.10;36.70
30288;DHT22;17103;48.316;11.558;2023-04-07T08:36:12;12.10;36.20
30288;DHT22;17103;48.316;11.558;2023-04-07T08:38:37;12.10;36.20
30288;DHT22;17103;48.316;11.558;2023-04-07T08:41:07;12.20;36.60
30288;DHT22;17103;48.316;11.558;2023-04-07T08:43:35;12.10;36.50
30288;DHT22;17103;48.316;11.558;2023-04-07T08:46:02;12.20;36.50
30288;DHT22;17103;48.316;11.558;2023-04-07T08:48:29;12.30;36.70
30288;DHT22;17103;48.316;11.558;2023-04-07T08:51:12;12.20;36.70
30288;DHT22;17103;48.316;11.558;2023-04-07T08:53:48;12.30;36.90
30288;DHT22;17103;48.316;11.558;2023-04-07T08:56:17;12.40;36.90
30288;DHT22;17103;48.316;11.558;2023-04-07T08:58:44;12.40;36.70
30288;DHT22;17103;48.316;11.558;2023-04-07T09:01:10;12.50;36.60
30288;DHT22;17103;48.316;11.558;2023-04-07T09:03:40;12.60;36.70
30288;DHT22;17103;48.316;11.558;2023-04-07T09:06:11;12.70;36.70
30288;DHT22;17103;48.316;11.558;2023-04-07T09:08:37;12.80;36.70
30288;DHT22;17103;48.316;11.558;2023-04-07T09:11:03;12.90;36.80
30288;DHT22;17103;48.316;11.558;2023-04-07T09:13:29;13.00;36.90
30288;DHT22;17103;48.316;11.558;2023-04-07T09:16:00;13.10;36.80
30288;DHT22;17103;48.316;11.558;2023-04-07T09:18:33;13.30;36.80
30288;DHT22;17103;48.316;11.558;2023-04-07T09:21:04;13.30;36.50
30288;DHT22;17103;48.316;11.558;2023-04-07T09:23:41;13.50;36.50
30288;DHT22;17103;48.316;11.558;2023-04-07T09:28:44;13.60;36.20
30288;DHT22;17103;48.316;11.558;2023-04-07T09:31:10;13.70;36.00
30288;DHT22;17103;48.316;11.558;2023-04-07T09:33:36;13.80;36.00
30288;DHT22;17103;48.316;11.558;2023-04-07T09:36:05;13.80;35.70
30288;DHT22;17103;48.316;11.558;2023-04-07T09:38:38;13.90;35.60
30288;DHT22;17103;48.316;11.558;2023-04-07T09:41:11;13.90;35.60
30288;DHT22;17103;48.316;11.558;2023-04-07T09:43:42;14.00;35.70
30288;DHT22;17103;48.316;11.558;2023-04-07T09:46:16;14.10;35.60
30288;DHT22;17103;48.316;11.558;2023-04-07T09:48:44;14.10;35.60
30288;DHT22;17103;48.316;11.558;2023-04-07T09:51:16;14.30;35.70
30288;DHT22;17103;48.316;11.558;2023-04-07T09:53:50;14.30;35.70
30288;DHT22;17103;48.316;11.558;2023-04-07T09:56:18;14.50;35.70
30288;DHT22;17103;48.316;11.558;2023-04-07T09:58:47;14.70;35.70
30288;DHT22;17103;48.316;11.558;2023-04-07T10:01:15;14.50;35.50
30288;DHT22;17103;48.316;11.558;2023-04-07T10:03:44;14.60;35.50
30288;DHT22;17103;48.316;11.558;2023-04-07T10:06:12;14.70;35.20
30288;DHT22;17103;48.316;11.558;2023-04-07T10:08:40;14.80;35.20
30288;DHT22;17103;48.316;11.558;2023-04-07T10:11:07;14.90;35.00
30288;DHT22;17103;48.316;11.558;2023-04-07T10:13:36;15.00;35.00
30288;DHT22;17103;48.316;11.558;2023-04-07T10:16:05;15.00;34.60
30288;DHT22;17103;48.316;11.558;2023-04-07T10:18:33;15.10;34.10
30288;DHT22;17103;48.316;11.558;2023-04-07T10:21:01;15.10;34.40
30288;DHT22;17103;48.316;11.558;2023-04-07T10:23:52;15.20;34.10
30288;DHT22;17103;48.316;11.558;2023-04-07T10:26:23;15.20;34.20
30288;DHT22;17103;48.316;11.558;2023-04-07T10:28:54;15.20;34.30
30288;DHT22;17103;48.316;11.558;2023-04-07T10:31:23;15.30;34.30
30288;DHT22;17103;48.316;11.558;2023-04-07T10:33:52;15.40;34.40
30288;DHT22;17103;48.316;11.558;2023-04-07T10:36:20;15.40;34.40
30288;DHT22;17103;48.316;11.558;2023-04-07T10:41:35;15.70;34.40
30288;DHT22;17103;48.316;11.558;2023-04-07T10:44:02;15.80;33.70
30288;DHT22;17103;48.316;11.558;2023-04-07T10:49:14;15.90;33.20
30288;DHT22;17103;48.316;11.558;2023-04-07T10:51:41;16.00;33.70
30288;DHT22;17103;48.316;11.558;2023-04-07T10:59:32;16.20;34.00
30288;DHT22;17103;48.316;11.558;2023-04-07T11:04:47;16.40;34.00
30288;DHT22;17103;48.316;11.558;2023-04-07T11:07:13;16.50;34.10
30288;DHT22;17103;48.316;11.558;2023-04-07T11:09:40;16.60;34.10
30288;DHT22;17103;48.316;11.558;2023-04-07T11:12:06;16.60;34.10
30288;DHT22;17103;48.316;11.558;2023-04-07T11:14:33;16.70;34.10
30288;DHT22;17103;48.316;11.558;2023-04-07T11:17:02;16.80;34.10
30288;DHT22;17103;48.316;11.558;2023-04-07T11:19:29;16.80;34.10
30288;DHT22;17103;48.316;11.558;2023-04-07T11:22:15;16.90;33.90
30288;DHT22;17103;48.316;11.558;2023-04-07T11:24:41;17.60;34.10
30288;DHT22;17103;48.316;11.558;2023-04-07T11:27:14;17.20;33.80
30288;DHT22;17103;48.316;11.558;2023-04-07T11:29:40;17.20;33.80
30288;DHT22;17103;48.316;11.558;2023-04-07T11:32:06;17.30;33.50
30288;DHT22;17103;48.316;11.558;2023-04-07T11:34:33;17.40;33.50
30288;DHT22;17103;48.316;11.558;2023-04-07T11:37:23;17.50;33.50
30288;DHT22;17103;48.316;11.558;2023-04-07T11:39:56;17.50;33.10
30288;DHT22;17103;48.316;11.558;2023-04-07T11:42:38;17.60;33.50
30288;DHT22;17103;48.316;11.558;2023-04-07T11:45:05;17.70;32.60
30288;DHT22;17103;48.316;11.558;2023-04-07T11:47:35;17.80;32.50
30288;DHT22;17103;48.316;11.558;2023-04-07T11:50:00;17.80;32.70
30288;DHT22;17103;48.316;11.558;2023-04-07T11:52:26;17.90;32.90
30288;DHT22;17103;48.316;11.558;2023-04-07T11:54:52;18.00;33.20
30288;DHT22;17103;48.316;11.558;2023-04-07T11:57:28;18.00;33.10
30288;DHT22;17103;48.316;11.558;2023-04-07T12:00:10;18.10;32.80
30288;DHT22;17103;48.316;11.558;2023-04-07T12:02:36;18.20;32.00
30288;DHT22;17103;48.316;11.558;2023-04-07T12:05:03;18.40;32.80
30288;DHT22;17103;48.316;11.558;2023-04-07T12:07:28;18.40;32.50
30288;DHT22;17103;48.316;11.558;2023-04-07T12:09:54;18.40;32.50
30288;DHT22;17103;48.316;11.558;2023-04-07T12:12:28;18.50;32.70
30288;DHT22;17103;48.316;11.558;2023-04-07T12:14:55;18.60;32.70
30288;DHT22;17103;48.316;11.558;2023-04-07T12:17:22;18.60;32.50
30288;DHT22;17103;48.316;11.558;2023-04-07T12:19:48;18.70;32.50
30288;DHT22;17103;48.316;11.558;2023-04-07T12:22:13;18.60;32.40
30288;DHT22;17103;48.316;11.558;2023-04-07T12:24:40;18.70;32.10
30288;DHT22;17103;48.316;11.558;2023-04-07T12:27:05;18.80;32.10
30288;DHT22;17103;48.316;11.558;2023-04-07T12:29:32;18.80;32.10
30288;DHT22;17103;48.316;11.558;2023-04-07T12:31:57;18.80;31.40
30288;DHT22;17103;48.316;11.558;2023-04-07T12:34:23;18.80;30.70
30288;DHT22;17103;48.316;11.558;2023-04-07T12:36:48;18.70;30.60
30288;DHT22;17103;48.316;11.558;2023-04-07T12:39:15;18.70;31.30
30288;DHT22;17103;48.316;11.558;2023-04-07T12:41:41;18.70;31.10
30288;DHT22;17103;48.316;11.558;2023-04-07T12:44:07;18.60;30.10
30288;DHT22;17103;48.316;11.558;2023-04-07T12:46:33;18.60;30.10
30288;DHT22;17103;48.316;11.558;2023-04-07T12:48:58;18.50;30.40
30288;DHT22;17103;48.316;11.558;2023-04-07T12:51:25;18.40;30.40
30288;DHT22;17103;48.316;11.558;2023-04-07T12:53:51;18.30;30.20
30288;DHT22;17103;48.316;11.558;2023-04-07T12:56:18;18.30;30.00
30288;DHT22;17103;48.316;11.558;2023-04-07T12:58:47;18.40;30.00
30288;DHT22;17103;48.316;11.558;2023-04-07T13:01:13;18.10;30.00
30288;DHT22;17103;48.316;11.558;2023-04-07T13:03:39;18.20;30.30
30288;DHT22;17103;48.316;11.558;2023-04-07T13:06:05;18.00;30.20
30288;DHT22;17103;48.316;11.558;2023-04-07T13:08:32;18.00;30.20
30288;DHT22;17103;48.316;11.558;2023-04-07T13:10:57;17.90;30.40
30288;DHT22;17103;48.316;11.558;2023-04-07T13:13:23;17.80;30.40
30288;DHT22;17103;48.316;11.558;2023-04-07T13:15:49;17.70;30.50
30288;DHT22;17103;48.316;11.558;2023-04-07T13:18:14;17.70;30.30
30288;DHT22;17103;48.316;11.558;2023-04-07T13:20:40;17.60;30.30
30288;DHT22;17103;48.316;11.558;2023-04-07T13:23:06;17.60;30.50
30288;DHT22;17103;48.316;11.558;2023-04-07T13:25:32;17.40;30.60
30288;DHT22;17103;48.316;11.558;2023-04-07T13:27:57;17.40;30.50
30288;DHT22;17103;48.316;11.558;2023-04-07T13:30:24;17.30;30.20
30288;DHT22;17103;48.316;11.558;2023-04-07T13:32:50;17.30;30.50
30288;DHT22;17103;48.316;11.558;2023-04-07T13:35:16;17.30;30.80
30288;DHT22;17103;48.316;11.558;2023-04-07T13:37:42;17.20;31.00
30288;DHT22;17103;48.316;11.558;2023-04-07T13:40:11;17.30;31.70
30288;DHT22;17103;48.316;11.558;2023-04-07T13:42:37;17.20;30.90
30288;DHT22;17103;48.316;11.558;2023-04-07T13:45:03;17.20;30.60
30288;DHT22;17103;48.316;11.558;2023-04-07T13:47:29;17.20;30.70
30288;DHT22;17103;48.316;11.558;2023-04-07T13:49:59;17.10;30.50
30288;DHT22;17103;48.316;11.558;2023-04-07T13:52:25;17.10;31.00
30288;DHT22;17103;48.316;11.558;2023-04-07T13:54:52;17.00;31.00
30288;DHT22;17103;48.316;11.558;2023-04-07T13:57:18;17.00;31.00
30288;DHT22;17103;48.316;11.558;2023-04-07T13:59:47;17.00;31.00
30288;DHT22;17103;48.316;11.558;2023-04-07T14:02:14;17.00;31.10
30288;DHT22;17103;48.316;11.558;2023-04-07T14:04:39;16.90;31.20
30288;DHT22;17103;48.316;11.558;2023-04-07T14:07:05;17.00;31.20
30288;DHT22;17103;48.316;11.558;2023-04-07T14:09:31;16.90;31.80
30288;DHT22;17103;48.316;11.558;2023-04-07T14:11:57;16.90;31.20
30288;DHT22;17103;48.316;11.558;2023-04-07T14:14:23;16.90;31.20
30288;DHT22;17103;48.316;11.558;2023-04-07T14:16:48;16.90;31.30
30288;DHT22;17103;48.316;11.558;2023-04-07T14:19:20;16.80;31.30
30288;DHT22;17103;48.316;11.558;2023-04-07T14:21:49;16.90;31.70
30288;DHT22;17103;48.316;11.558;2023-04-07T14:24:16;17.00;31.80
30288;DHT22;17103;48.316;11.558;2023-04-07T14:26:45;16.90;31.70
30288;DHT22;17103;48.316;11.558;2023-04-07T14:29:11;17.00;31.80
30288;DHT22;17103;48.316;11.558;2023-04-07T14:31:37;17.00;31.70
30288;DHT22;17103;48.316;11.558;2023-04-07T14:34:03;17.00;31.60
30288;DHT22;17103;48.316;11.558;2023-04-07T14:36:30;17.00;31.60
30288;DHT22;17103;48.316;11.558;2023-04-07T14:38:56;17.10;31.70
30288;DHT22;17103;48.316;11.558;2023-04-07T14:41:23;17.10;31.70
30288;DHT22;17103;48.316;11.558;2023-04-07T14:43:49;17.10;31.70
30288;DHT22;17103;48.316;11.558;2023-04-07T14:46:21;17.10;32.20
30288;DHT22;17103;48.316;11.558;2023-04-07T14:48:46;17.10;31.70
30288;DHT22;17103;48.316;11.558;2023-04-07T14:51:12;17.10;31.70
30288;DHT22;17103;48.316;11.558;2023-04-07T14:53:39;17.20;31.70
30288;DHT22;17103;48.316;11.558;2023-04-07T14:56:06;17.20;31.70
30288;DHT22;17103;48.316;11.558;2023-04-07T14:58:32;17.20;31.70
30288;DHT22;17103;48.316;11.558;2023-04-07T15:00:58;17.20;31.60
30288;DHT22;17103;48.316;11.558;2023-04-07T15:03:24;17.20;31.50
30288;DHT22;17103;48.316;11.558;2023-04-07T15:05:50;17.20;31.50
30288;DHT22;17103;48.316;11.558;2023-04-07T15:08:16;17.20;31.40
30288;DHT22;17103;48.316;11.558;2023-04-07T15:10:41;17.10;31.30
30288;DHT22;17103;48.316;11.558;2023-04-07T15:13:07;17.30;31.40
30288;DHT22;17103;48.316;11.558;2023-04-07T15:15:33;17.00;31.30
30288;DHT22;17103;48.316;11.558;2023-04-07T15:17:58;17.00;31.40
30288;DHT22;17103;48.316;11.558;2023-04-07T15:20:24;16.90;31.40
30288;DHT22;17103;48.316;11.558;2023-04-07T15:22:50;16.90;31.40
30288;DHT22;17103;48.316;11.558;2023-04-07T15:25:15;16.90;31.50
30288;DHT22;17103;48.316;11.558;2023-04-07T15:27:41;16.90;31.60
30288;DHT22;17103;48.316;11.558;2023-04-07T15:30:07;16.90;31.70
30288;DHT22;17103;48.316;11.558;2023-04-07T15:32:33;16.90;31.80
30288;DHT22;17103;48.316;11.558;2023-04-07T15:34:59;16.90;31.80
30288;DHT22;17103;48.316;11.558;2023-04-07T15:37:25;16.90;31.80
30288;DHT22;17103;48.316;11.558;2023-04-07T15:39:51;16.80;31.80
30288;DHT22;17103;48.316;11.558;2023-04-07T15:42:16;16.90;31.90